ADDS METAR Data INFO
IDs: Format: Raw Decoded Include TAF

Data at: 2012 UTC 19 Oct 2017

KHUF 191953Z 20005KT 10SM CLR 23/10 A3018 RMK AO2 SLP218 T02330100
KHUF 191853Z VRB06KT 10SM CLR 23/11 A3019 RMK AO2 SLP220 T02280106
KHUF 191753Z 10SM CLR 21/11 A3020 RMK AO2 SLP223 T02110106 10211 20100 58008
KHUF 191653Z VRB04KT 10SM CLR 20/09 A3022 RMK AO2 SLP232 T02000094
KHUF 191553Z VRB05KT 10SM CLR 18/09 A3023 RMK AO2 SLP234 T01830094
KHUF 191453Z 20008KT 10SM CLR 16/09 A3022 RMK AO2 SLP233 T01610094 53015
KHUF 191353Z 20006KT 10SM CLR 14/09 A3021 RMK AO2 SLP229 T01440089
KHUF 191253Z 19004KT 10SM CLR 12/08 A3018 RMK AO2 SLP221 T01170083
KHUF 191153Z 19005KT 10SM CLR 11/08 A3018 RMK AO2 SLP218 T01060078 10128 20100 50006
KHUF 191053Z 18005KT 10SM CLR 11/08 A3018 RMK AO2 SLP218 T01110078
KHUF 190953Z 18006KT 10SM CLR 11/07 A3016 RMK AO2 SLP212 T01060072
KHUF 190853Z 18005KT 10SM CLR 11/07 A3016 RMK AO2 SLP211 T01110072 56002
KHUF 190753Z 18004KT 10SM CLR 10/07 A3016 RMK AO2 SLP212 T01000067
KHUF 190653Z 19004KT 10SM CLR 11/07 A3016 RMK AO2 SLP211 T01110072
KHUF 190553Z 20006KT 10SM CLR 13/08 A3016 RMK AO2 SLP212 T01280078 10150 20122 53003
KHUF 190453Z 21006KT 10SM CLR 14/08 A3016 RMK AO2 SLP211 T01390078 402110028
KHUF 190353Z 19007KT 10SM CLR 13/07 A3016 RMK AO2 SLP211 T01330072
KHUF 190253Z 18006KT 10SM CLR 12/07 A3015 RMK AO2 SLP211 T01220067 53000
KHUF 190153Z 17006KT 10SM CLR 13/07 A3015 RMK AO2 SLP209 T01330067
KHUF 190053Z 17006KT 10SM CLR 13/07 A3016 RMK AO2 SLP213 T01330067
KHUF 182353Z 17004KT 10SM CLR 15/07 A3015 RMK AO2 SLP211 T01500067 10211 20150 55003
KHUF 182253Z 17007KT 10SM CLR 17/07 A3015 RMK AO2 SLP209 T01720072
KHUF 182153Z 18011KT 10SM CLR 20/06 A3015 RMK AO2 SLP209 T02000061
KHUF 182053Z 19010KT 10SM CLR 21/07 A3016 RMK AO2 SLP213 T02060067 56021
KHUF 181953Z 19010G18KT 10SM CLR 21/07 A3017 RMK AO2 SLP218 T02060067
KHUF 181853Z 19012KT 10SM CLR 21/07 A3019 RMK AO2 SLP224 T02060072
KHUF 181753Z 19010G20KT 10SM CLR 20/06 A3022 RMK AO2 SLP235 T02000061 10200 20044 58017
KHUF 181653Z 20010G19KT 10SM CLR 19/06 A3025 RMK AO2 SLP245 T01890061
KHUF 181553Z 20007KT 10SM CLR 17/07 A3027 RMK AO2 SLP250 T01720072
KHUF 181453Z 16006KT 10SM CLR 14/08 A3027 RMK AO2 SLP253 T01440078 50006
KHUF 181353Z 16005KT 10SM CLR 11/07 A3028 RMK AO2 SLP254 T01110072
KHUF 181253Z 14003KT 10SM CLR 07/05 A3027 RMK AO2 SLP252 T00670050
KHUF 181153Z 00000KT 10SM CLR 04/03 A3026 RMK AO2 SLP247 T00440028 10067 20028 53007
KHUF 181053Z 00000KT 10SM CLR 04/03 A3025 RMK AO2 SLP244 T00390028
KHUF 180953Z 15003KT 10SM CLR 06/04 A3024 RMK AO2 SLP240 T00610039
KHUF 180853Z 00000KT 10SM CLR 05/03 A3024 RMK AO2 SLP239 T00500033 57003